This is the latest recevied weather packets stored in our database for station/object G4MDP-13. If no packets are shown the sender has not sent any weather packets the latest 1 day(s).
| Time | Temp. | Humidity | Pressure | Rain* | Wind** | Luminosity | Snow |
|---|---|---|---|---|---|---|---|
| 1778041157 | 9.44° C | 79% | 1005.8 hPa | 0 mm | 1.79 m/s, 146° | - | - |
| 1778040317 | 9.44° C | 77% | 1005.8 hPa | 0 mm | 1.79 m/s, 151° | - | - |
| 1778040258 | 9.44° C | 77% | 1006 hPa | 0 mm | 1.79 m/s, 151° | - | - |
| 1778039358 | 9.44° C | 77% | 1006 hPa | 0 mm | 1.79 m/s, 147° | - | - |
| 1778039357 | 9.44° C | 77% | 1006 hPa | 0 mm | 1.79 m/s, 147° | - | - |
| 1778038517 | 10° C | 77% | 1005.9 hPa | 0 mm | 1.79 m/s, 146° | - | - |
| 1778038458 | 10° C | 77% | 1005.9 hPa | 0 mm | 1.79 m/s, 148° | - | - |
| 1778037558 | 10° C | 76% | 1005.9 hPa | 0 mm | 1.79 m/s, 147° | - | - |
| 1778037557 | 10° C | 76% | 1005.9 hPa | 0 mm | 1.79 m/s, 147° | - | - |
| 1778036717 | 10° C | 75% | 1005.9 hPa | 0 mm | 1.79 m/s, 146° | - | - |
| 1778036658 | 10° C | 75% | 1005.9 hPa | 0 mm | 1.79 m/s, 147° | - | - |
| 1778035758 | 10.56° C | 74% | 1005.7 hPa | 0 mm | 1.79 m/s, 148° | - | - |
| 1778035757 | 10.56° C | 74% | 1005.7 hPa | 0 mm | 1.79 m/s, 148° | - | - |
| 1778034917 | 10.56° C | 73% | 1006 hPa | 0 mm | 1.79 m/s, 139° | - | - |
| 1778034858 | 10.56° C | 73% | 1006 hPa | 0 mm | 1.79 m/s, 140° | - | - |
| 1778033958 | 10.56° C | 74% | 1006 hPa | 0 mm | 1.79 m/s, 141° | - | - |
| 1778033957 | 10.56° C | 74% | 1006 hPa | 0 mm | 1.79 m/s, 141° | - | - |
| 1778033117 | 10.56° C | 77% | 1005.9 hPa | 0 mm | 1.79 m/s, 149° | - | - |
| 1778033058 | 10.56° C | 77% | 1006 hPa | 0 mm | 1.79 m/s, 150° | - | - |
| 1778032158 | 10.56° C | 76% | 1006 hPa | 0 mm | 1.79 m/s, 135° | - | - |
| 1778032157 | 10.56° C | 76% | 1006 hPa | 0 mm | 1.79 m/s, 135° | - | - |
| 1778031317 | 11.11° C | 78% | 1006 hPa | 0 mm | 1.79 m/s, 145° | - | - |
| 1778031258 | 11.11° C | 78% | 1006 hPa | 0 mm | 1.79 m/s, 145° | - | - |
| 1778030358 | 11.11° C | 78% | 1006 hPa | 0 mm | 1.79 m/s, 143° | - | - |
| 1778030357 | 11.11° C | 78% | 1006 hPa | 0 mm | 1.79 m/s, 143° | - | - |
* Rain latest hour (hover to see other rain measurements)
** Current wind speed in m/s (hover to see current wind gust speed)